Time;durP1;ratioP1;P1;durP2;ratioP2;P2;SDS_P1;SDS_P2;PMS_P1;PMS_P2;Temp;Humidity;BMP_temperature;BMP_pressure;BME280_temperature;BME280_humidity;BME280_pressure;Samples;Min_cycle;Max_cycle;Signal;HPM_P1;HPM_P2
2019/04/12 00:00:00;;;;;;;29.7;23.4;;;;;;;4.18;62.70996;961.0641;;;;
2019/04/12 00:02:30;;;;;;;30.2;23.8;;;;;;;4.23;62.53516;961.0986;;;;
2019/04/12 00:04:51;;;;;;;28.3;22.5;;;;;;;4.12;62.69043;961.1153;;;;
2019/04/12 00:07:18;;;;;;;30.5;23.3;;;;;;;4;62.93457;961.0776;;;;
2019/04/12 00:09:44;;;;;;;28.9;22.5;;;;;;;3.97;62.99707;961.1392;;;;
2019/04/12 00:12:09;;;;;;;29.5;21.7;;;;;;;3.89;62.80371;961.0737;;;;
2019/04/12 00:14:35;;;;;;;28.1;21.5;;;;;;;3.78;62.96973;961.0527;;;;
2019/04/12 00:17:00;;;;;;;29.4;22.1;;;;;;;3.66;63.44043;961.0698;;;;
2019/04/12 00:19:26;;;;;;;30.7;22.3;;;;;;;3.71;63.07227;961.0577;;;;
2019/04/12 00:21:52;;;;;;;27.2;21;;;;;;;3.64;63.44824;961.0211;;;;
2019/04/12 00:24:17;;;;;;;25.1;20;;;;;;;3.6;63.80469;960.978;;;;
2019/04/12 00:26:42;;;;;;;24.7;20.9;;;;;;;3.5;63.7002;960.9936;;;;
2019/04/12 00:29:07;;;;;;;26.7;21.2;;;;;;;3.4;64.30859;961.0094;;;;
2019/04/12 00:31:33;;;;;;;27.5;20.2;;;;;;;3.33;64.08203;961.0067;;;;
2019/04/12 00:33:59;;;;;;;27.5;20.3;;;;;;;3.2;64.45996;961.0622;;;;
2019/04/12 00:36:23;;;;;;;26.3;19.7;;;;;;;3.08;64.87207;961.0206;;;;
2019/04/12 00:38:49;;;;;;;24.8;19.6;;;;;;;3.05;65.09473;961.0307;;;;
2019/04/12 00:41:14;;;;;;;23.5;19.2;;;;;;;2.94;65.70215;961.0472;;;;
2019/04/12 00:43:43;;;;;;;24.4;18.8;;;;;;;2.92;65.14258;960.9856;;;;
2019/04/12 00:46:09;;;;;;;25.1;18.4;;;;;;;2.85;65.11035;960.9741;;;;
2019/04/12 00:48:36;;;;;;;23.1;18;;;;;;;2.79;65.82617;961.0206;;;;
2019/04/12 00:51:01;;;;;;;24.3;18.9;;;;;;;2.69;66.01465;961.0315;;;;
2019/04/12 00:53:26;;;;;;;22.5;17.7;;;;;;;2.64;65.96094;961.0606;;;;
2019/04/12 00:55:52;;;;;;;22.6;17.5;;;;;;;2.59;65.86328;961.0179;;;;
2019/04/12 00:58:17;;;;;;;21.8;16.1;;;;;;;2.5;66.1875;960.9149;;;;
2019/04/12 01:03:10;;;;;;;23.1;17;;;;;;;2.43;66.3252;960.9702;;;;
2019/04/12 01:05:36;;;;;;;23.4;17;;;;;;;2.38;66.59961;960.9741;;;;
2019/04/12 01:08:10;;;;;;;22.1;17;;;;;;;2.33;66.64941;960.9308;;;;
2019/04/12 01:10:28;;;;;;;24.5;17.5;;;;;;;2.26;67.21582;960.9949;;;;
2019/04/12 01:12:53;;;;;;;23.9;16.6;;;;;;;2.22;67.58301;960.9934;;;;
2019/04/12 01:15:19;;;;;;;21.1;16.1;;;;;;;2.2;67.39844;961.0036;;;;
2019/04/12 01:17:43;;;;;;;21;16.5;;;;;;;2.19;67.31738;960.9829;;;;
2019/04/12 01:20:09;;;;;;;24.2;15.9;;;;;;;2.13;67.39746;961.0291;;;;
2019/04/12 01:22:34;;;;;;;20.1;15.9;;;;;;;2.1;67.74414;961.0352;;;;
2019/04/12 01:25:00;;;;;;;19.7;16;;;;;;;1.99;68.13477;961.043;;;;
2019/04/12 01:27:25;;;;;;;21.2;16.7;;;;;;;2.06;67.88477;961.0344;;;;
2019/04/12 01:29:50;;;;;;;20.6;15.6;;;;;;;1.9;68.58203;961.0407;;;;
2019/04/12 01:32:15;;;;;;;20.4;15.5;;;;;;;1.88;68.41113;961.0378;;;;
2019/04/12 01:34:40;;;;;;;20.4;15.6;;;;;;;1.91;68.41504;961.0106;;;;
2019/04/12 01:37:07;;;;;;;19.2;14.9;;;;;;;1.88;68.88477;961.0464;;;;
2019/04/12 01:39:32;;;;;;;20.9;15.9;;;;;;;1.75;68.79785;961.0507;;;;
2019/04/12 01:41:57;;;;;;;19.1;14.8;;;;;;;1.73;69.39258;960.9853;;;;
2019/04/12 01:44:23;;;;;;;18.4;15.4;;;;;;;1.72;69.23145;961.0659;;;;
2019/04/12 01:46:48;;;;;;;18.5;15.4;;;;;;;1.69;69.31934;961.055;;;;
2019/04/12 01:49:14;;;;;;;19.9;14.6;;;;;;;1.58;69.52441;960.9995;;;;
2019/04/12 01:51:43;;;;;;;18.8;14.6;;;;;;;1.66;69.16602;961.0695;;;;
2019/04/12 01:54:15;;;;;;;17.1;14.2;;;;;;;1.61;69.31738;961.0435;;;;
2019/04/12 01:56:40;;;;;;;18.2;14.5;;;;;;;1.55;69.24902;961.0689;;;;
2019/04/12 01:59:05;;;;;;;17.9;14.2;;;;;;;1.51;69.93262;960.9665;;;;
2019/04/12 02:01:30;;;;;;;20.1;14.1;;;;;;;1.46;70.04883;960.9781;;;;
2019/04/12 02:03:55;;;;;;;19;14.1;;;;;;;1.39;70.11523;960.8817;;;;
2019/04/12 02:06:33;;;;;;;18.4;14.6;;;;;;;1.42;69.9502;960.9222;;;;
2019/04/12 02:08:58;;;;;;;18.5;14.1;;;;;;;1.4;70.11816;960.9442;;;;
2019/04/12 02:11:23;;;;;;;18.4;13.7;;;;;;;1.31;70.06934;960.908;;;;
2019/04/12 02:13:48;;;;;;;17.2;13.6;;;;;;;1.34;69.79102;960.9106;;;;
2019/04/12 02:16:14;;;;;;;17.1;13.4;;;;;;;1.31;70.13672;961.0466;;;;
2019/04/12 02:18:39;;;;;;;17;13.5;;;;;;;1.22;70.46094;960.9559;;;;
2019/04/12 02:21:04;;;;;;;18.7;14;;;;;;;1.2;70.39063;960.9828;;;;
2019/04/12 02:23:31;;;;;;;19.4;13.2;;;;;;;1.18;70.27246;960.9922;;;;
2019/04/12 02:25:56;;;;;;;18.9;13.5;;;;;;;1.16;70.23438;960.9228;;;;
2019/04/12 02:28:22;;;;;;;16.4;12.5;;;;;;;1.14;70.62695;960.9236;;;;
2019/04/12 02:30:50;;;;;;;18.5;13.2;;;;;;;1.06;70.60156;960.8953;;;;
2019/04/12 02:33:12;;;;;;;17.8;13.5;;;;;;;1.12;70.5127;960.9373;;;;
2019/04/12 02:35:41;;;;;;;17;12.9;;;;;;;1.03;70.72168;960.9055;;;;
2019/04/12 02:38:04;;;;;;;15.8;12.6;;;;;;;1;70.81836;960.9327;;;;
2019/04/12 02:40:30;;;;;;;16.6;13.4;;;;;;;0.95;71.0127;960.9528;;;;
2019/04/12 02:42:55;;;;;;;15.7;12.4;;;;;;;1.01;70.85547;960.9402;;;;
2019/04/12 02:45:22;;;;;;;17.3;12.8;;;;;;;0.92;71.3584;960.9592;;;;
2019/04/12 02:47:47;;;;;;;16.8;13.2;;;;;;;0.88;71.35156;960.9485;;;;
2019/04/12 02:52:44;;;;;;;16.9;12.8;;;;;;;0.87;71.41797;960.9451;;;;
2019/04/12 02:59:53;;;;;;;17;12.6;;;;;;;0.77;71.35449;960.8845;;;;
2019/04/12 03:02:21;;;;;;;17.2;13.6;;;;;;;0.77;71.54492;960.9606;;;;
2019/04/12 03:04:43;;;;;;;16.8;12.8;;;;;;;0.76;71.56738;960.9315;;;;
2019/04/12 03:07:10;;;;;;;17.6;13.7;;;;;;;0.75;71.53223;960.8859;;;;
2019/04/12 03:09:35;;;;;;;18.6;13.5;;;;;;;0.73;71.82227;960.9671;;;;
2019/04/12 03:12:00;;;;;;;19.2;13.2;;;;;;;0.65;71.8877;960.9387;;;;
2019/04/12 03:14:27;;;;;;;17.4;13.7;;;;;;;0.66;71.83301;960.9839;;;;
2019/04/12 03:16:52;;;;;;;16.7;12.8;;;;;;;0.67;71.5957;960.9419;;;;
2019/04/12 03:19:17;;;;;;;17.7;13.1;;;;;;;0.71;71.67285;960.9178;;;;
2019/04/12 03:21:42;;;;;;;15.9;12.9;;;;;;;0.71;71.6377;960.918;;;;
2019/04/12 03:24:09;;;;;;;17;12.8;;;;;;;0.77;71.38867;960.9813;;;;
2019/04/12 03:26:35;;;;;;;18.3;13.4;;;;;;;0.71;71.87598;960.9933;;;;
2019/04/12 03:29:01;;;;;;;18;13.5;;;;;;;0.69;71.69043;960.9277;;;;
2019/04/12 03:31:26;;;;;;;17.5;13.1;;;;;;;0.69;71.81445;961.0198;;;;
2019/04/12 03:33:53;;;;;;;16.1;13;;;;;;;0.71;71.6709;960.9515;;;;
2019/04/12 03:36:18;;;;;;;17;13.2;;;;;;;0.7;71.35449;961.0153;;;;
2019/04/12 03:38:44;;;;;;;17.1;12.8;;;;;;;0.74;71.125;960.962;;;;
2019/04/12 03:41:09;;;;;;;17.4;12.5;;;;;;;0.69;71.77148;960.9609;;;;
2019/04/12 03:43:34;;;;;;;14.4;12;;;;;;;0.83;71.18457;960.9733;;;;
2019/04/12 03:45:59;;;;;;;15.9;12.6;;;;;;;0.83;71.4668;961.0024;;;;
2019/04/12 03:48:24;;;;;;;18.1;13;;;;;;;0.77;71.03711;960.9733;;;;
2019/04/12 03:50:49;;;;;;;18.6;13.3;;;;;;;0.8;70.8418;960.9542;;;;
2019/04/12 03:53:15;;;;;;;15.2;12.6;;;;;;;0.88;70.44922;960.9863;;;;
2019/04/12 03:55:40;;;;;;;16.2;11.7;;;;;;;0.97;70.10156;960.9597;;;;
2019/04/12 03:58:06;;;;;;;17;12.4;;;;;;;0.95;70.93359;960.9402;;;;
2019/04/12 04:02:29;;;;;;;17.9;12.6;;;;;;;1.01;70.22168;960.9573;;;;
2019/04/12 04:04:54;;;;;;;15;12.6;;;;;;;1.08;70.44824;960.9444;;;;
2019/04/12 04:07:19;;;;;;;19.8;12.7;;;;;;;1.03;69.9541;960.9519;;;;
2019/04/12 04:09:46;;;;;;;16.3;12.7;;;;;;;1.15;69.71484;960.9356;;;;
2019/04/12 04:12:09;;;;;;;16.4;12.7;;;;;;;1.18;69.73047;960.9881;;;;
2019/04/12 04:14:34;;;;;;;15.9;12.2;;;;;;;1.2;69.45117;960.9661;;;;
2019/04/12 04:19:29;;;;;;;17.5;13.2;;;;;;;1.18;70.31836;960.9755;;;;
2019/04/12 04:21:53;;;;;;;15.3;12.2;;;;;;;1.2;69.46484;961.008;;;;
2019/04/12 04:24:21;;;;;;;17.7;12.6;;;;;;;1.23;69.62695;961.0098;;;;
2019/04/12 04:29:24;;;;;;;15.7;12.1;;;;;;;1.41;69.08008;960.9816;;;;
2019/04/12 04:31:48;;;;;;;16.4;12.5;;;;;;;1.27;69.24902;961.0033;;;;
2019/04/12 04:34:01;;;;;;;17.1;11.8;;;;;;;1.16;69.58105;960.9727;;;;
2019/04/12 04:36:26;;;;;;;15;12.4;;;;;;;1.31;68.91699;960.9543;;;;
2019/04/12 04:38:51;;;;;;;14.6;12;;;;;;;1.2;69.76758;960.9914;;;;
2019/04/12 04:41:16;;;;;;;16.5;12.4;;;;;;;1.19;69.5293;961.0128;;;;
2019/04/12 04:43:41;;;;;;;16.5;12;;;;;;;1.12;70.01563;961.0508;;;;
2019/04/12 04:46:06;;;;;;;16.6;12.8;;;;;;;1.09;69.52246;961.0784;;;;
2019/04/12 04:48:31;;;;;;;14.6;11.6;;;;;;;1.14;69.35156;961.1;;;;
2019/04/12 04:50:56;;;;;;;15;12.2;;;;;;;1.25;69.50586;961.1013;;;;
2019/04/12 04:53:21;;;;;;;17;12.7;;;;;;;1.22;69.81543;961.1329;;;;
2019/04/12 04:55:46;;;;;;;17;12.7;;;;;;;1.09;69.80664;961.1494;;;;
2019/04/12 04:58:14;;;;;;;16.2;12.1;;;;;;;1.24;69.12988;961.165;;;;
2019/04/12 05:00:37;;;;;;;14.5;11.9;;;;;;;1.33;69.29297;961.134;;;;
2019/04/12 05:03:02;;;;;;;18.6;13;;;;;;;1.27;69.41797;961.1964;;;;
2019/04/12 05:05:28;;;;;;;16.3;11.6;;;;;;;1.11;70.0127;961.1864;;;;
2019/04/12 05:07:55;;;;;;;15;11.9;;;;;;;1.29;69.80469;961.2208;;;;
2019/04/12 05:10:18;;;;;;;15.7;12.1;;;;;;;1.18;69.68555;961.1944;;;;
2019/04/12 05:12:43;;;;;;;14.4;12.1;;;;;;;1.22;69.50098;961.2332;;;;
2019/04/12 05:15:08;;;;;;;18.1;12.5;;;;;;;1.26;69.96973;961.2725;;;;
2019/04/12 05:17:33;;;;;;;16.6;12.5;;;;;;;1.21;70.17676;961.2424;;;;
2019/04/12 05:19:58;;;;;;;17.6;12.6;;;;;;;1.33;69.86914;961.2727;;;;
2019/04/12 05:22:23;;;;;;;16.9;12.9;;;;;;;1.19;69.67578;961.2523;;;;
2019/04/12 05:24:48;;;;;;;16.8;12.6;;;;;;;1.15;70.05371;961.2717;;;;
2019/04/12 05:27:14;;;;;;;16.5;12.7;;;;;;;1.34;69.76855;961.2722;;;;
2019/04/12 05:29:39;;;;;;;18.6;12.9;;;;;;;1.3;70.40625;961.2661;;;;
2019/04/12 05:32:04;;;;;;;17.7;12.7;;;;;;;1.28;69.64746;961.2841;;;;
2019/04/12 05:34:29;;;;;;;17.3;12.9;;;;;;;1.36;70.92383;961.2871;;;;
2019/04/12 05:36:57;;;;;;;16.6;12.8;;;;;;;1.39;69.95703;961.2938;;;;
2019/04/12 05:39:22;;;;;;;17.1;13;;;;;;;1.39;69.75391;961.2812;;;;
2019/04/12 05:41:56;;;;;;;16.2;12.6;;;;;;;1.47;69.28125;961.2509;;;;
2019/04/12 05:44:21;;;;;;;17;12.8;;;;;;;1.63;69.30859;961.2647;;;;
2019/04/12 05:51:36;;;;;;;16.5;13.3;;;;;;;1.72;69.4248;961.3176;;;;
2019/04/12 05:54:01;;;;;;;16.9;13.5;;;;;;;1.81;69.34766;961.2827;;;;
2019/04/12 05:56:28;;;;;;;17;13.5;;;;;;;1.94;68.52148;961.3158;;;;
2019/04/12 06:01:47;;;;;;;18.4;13.7;;;;;;;1.67;69.25781;961.2921;;;;
2019/04/12 06:04:05;;;;;;;18.6;13.2;;;;;;;1.7;69.74805;961.3365;;;;
2019/04/12 06:06:39;;;;;;;20;13.9;;;;;;;1.75;69.48633;961.3287;;;;
2019/04/12 06:09:04;;;;;;;18.4;13.8;;;;;;;1.84;69.76074;961.3432;;;;
2019/04/12 06:11:28;;;;;;;18.3;13.5;;;;;;;1.88;68.90918;961.3281;;;;
2019/04/12 06:13:53;;;;;;;18.1;13.8;;;;;;;2.03;69.01074;961.3978;;;;
2019/04/12 06:16:18;;;;;;;18;14;;;;;;;1.96;68.62598;961.3481;;;;
2019/04/12 06:18:44;;;;;;;17;14.2;;;;;;;2.05;69.21777;961.3419;;;;
2019/04/12 06:21:17;;;;;;;19.1;13.5;;;;;;;2.3;68.94141;961.3793;;;;
2019/04/12 06:23:36;;;;;;;16.4;13.3;;;;;;;2.23;67.74316;961.3797;;;;
2019/04/12 06:26:10;;;;;;;17.7;13.9;;;;;;;2.21;68.25977;961.3351;;;;
2019/04/12 06:28:26;;;;;;;18.2;14.2;;;;;;;2.18;68.77539;961.3369;;;;
2019/04/12 06:30:53;;;;;;;17.8;13.6;;;;;;;2.43;67.8877;961.349;;;;
2019/04/12 06:33:17;;;;;;;18.4;14.4;;;;;;;2.08;68.78125;961.382;;;;
2019/04/12 06:35:43;;;;;;;21.2;15.2;;;;;;;2.41;67.90723;961.4644;;;;
2019/04/12 06:38:07;;;;;;;18.3;13.9;;;;;;;2.47;67.84863;961.4222;;;;
2019/04/12 06:40:32;;;;;;;18.3;14.6;;;;;;;2.4;68.82129;961.4271;;;;
2019/04/12 06:42:57;;;;;;;18.1;14.1;;;;;;;2.51;67.75391;961.4361;;;;
2019/04/12 06:45:23;;;;;;;20.9;14.7;;;;;;;2.67;67.7793;961.4163;;;;
2019/04/12 06:47:47;;;;;;;18;14;;;;;;;2.57;67.9541;961.449;;;;
2019/04/12 06:50:19;;;;;;;17.9;14.9;;;;;;;2.49;67.96582;961.4247;;;;
2019/04/12 06:52:37;;;;;;;19.1;14.9;;;;;;;2.63;68.51953;961.4069;;;;
2019/04/12 06:55:04;;;;;;;18.1;14.3;;;;;;;2.91;67.12598;961.4033;;;;
2019/04/12 06:57:28;;;;;;;18.9;15;;;;;;;3.02;67.50586;961.3997;;;;
2019/04/12 07:02:25;;;;;;;18.9;15;;;;;;;3.16;67.38086;961.4104;;;;
2019/04/12 07:04:51;;;;;;;18.9;14.9;;;;;;;3.14;66.56152;961.3656;;;;
2019/04/12 07:07:14;;;;;;;19.8;15.6;;;;;;;3.19;65.47949;961.3284;;;;
2019/04/12 07:09:39;;;;;;;19.2;14.8;;;;;;;3.62;65.2168;961.3597;;;;
2019/04/12 07:12:04;;;;;;;22;16.3;;;;;;;3.42;65.97949;961.3453;;;;
2019/04/12 07:14:29;;;;;;;19.8;15;;;;;;;3.6;65.8252;961.3449;;;;
2019/04/12 07:16:55;;;;;;;20.1;15.7;;;;;;;3.77;65.47949;961.3357;;;;
2019/04/12 07:19:20;;;;;;;21.6;16;;;;;;;4.07;64.66016;961.3384;;;;
2019/04/12 07:21:45;;;;;;;20.8;16.1;;;;;;;3.9;64.89648;961.3386;;;;
2019/04/12 07:24:10;;;;;;;22;16.8;;;;;;;3.58;64.28027;961.3625;;;;
2019/04/12 07:26:35;;;;;;;21.1;16;;;;;;;4.07;63.41016;961.3258;;;;
2019/04/12 07:29:01;;;;;;;21;16.2;;;;;;;3.97;63.55469;961.2952;;;;
2019/04/12 07:31:26;;;;;;;20.6;16;;;;;;;4.15;64.11523;961.2944;;;;
2019/04/12 07:33:56;;;;;;;22.8;16.3;;;;;;;4.2;63.58887;961.3115;;;;
2019/04/12 07:36:22;;;;;;;19.3;15.9;;;;;;;3.91;63.81934;961.3426;;;;
2019/04/12 07:38:48;;;;;;;21.2;16.1;;;;;;;3.94;63.50391;961.3653;;;;
2019/04/12 07:41:13;;;;;;;21.9;16.5;;;;;;;4.04;63.38281;961.3873;;;;
2019/04/12 07:43:42;;;;;;;21.1;16.7;;;;;;;3.81;63.87109;961.3582;;;;
2019/04/12 07:46:10;;;;;;;20.7;16.4;;;;;;;4.26;64.58789;961.4336;;;;
2019/04/12 07:48:35;;;;;;;19.6;16.1;;;;;;;4.46;62.86523;961.3761;;;;
2019/04/12 07:51:04;;;;;;;22.8;16.6;;;;;;;4.47;62.07031;961.3456;;;;
2019/04/12 07:53:29;;;;;;;21.5;15.7;;;;;;;4.75;62.18066;961.3359;;;;
2019/04/12 07:56:02;;;;;;;25.8;17.8;;;;;;;4.48;62.5166;961.3064;;;;
2019/04/12 07:58:20;;;;;;;22.4;17.6;;;;;;;5.02;61.43164;961.3867;;;;
2019/04/12 08:01:17;;;;;;;21;17.1;;;;;;;5.01;60.09766;961.3793;;;;
2019/04/12 08:03:18;;;;;;;20.7;17;;;;;;;5.23;59.90137;961.2933;;;;
2019/04/12 08:05:40;;;;;;;22.6;17.2;;;;;;;5.23;59.91211;961.3574;;;;
2019/04/12 08:08:04;;;;;;;21.7;17.2;;;;;;;5.25;59.76758;961.3767;;;;
2019/04/12 08:10:26;;;;;;;24.7;17.9;;;;;;;5.09;60.12207;961.3472;;;;
2019/04/12 08:12:51;;;;;;;20.4;17.1;;;;;;;5.01;61.58008;961.3072;;;;
2019/04/12 08:15:16;;;;;;;24.6;18;;;;;;;4.91;60.65332;961.3744;;;;
2019/04/12 08:17:46;;;;;;;20.7;17.6;;;;;;;5.08;61.64648;961.361;;;;
2019/04/12 08:20:19;;;;;;;21.2;18;;;;;;;5.22;59.56934;961.3411;;;;
2019/04/12 08:22:43;;;;;;;22.5;17.9;;;;;;;4.51;61.14258;961.3638;;;;
2019/04/12 08:25:08;;;;;;;22.3;18.3;;;;;;;5.03;61.28516;961.3098;;;;
2019/04/12 08:27:36;;;;;;;24.7;19.1;;;;;;;5.11;60.18164;961.3158;;;;
2019/04/12 08:30:03;;;;;;;22.9;18.1;;;;;;;5.02;62.20703;961.2725;;;;
2019/04/12 08:32:30;;;;;;;23.4;18.6;;;;;;;5.49;60.62207;961.3994;;;;
2019/04/12 08:35:00;;;;;;;22.3;18.2;;;;;;;6.06;59.26465;961.3178;;;;
2019/04/12 08:37:26;;;;;;;25.4;18.8;;;;;;;5.64;58.41895;961.2941;;;;
2019/04/12 08:39:51;;;;;;;22.7;18.8;;;;;;;5.93;58.31055;961.3628;;;;
2019/04/12 08:42:22;;;;;;;23.6;18.7;;;;;;;5.77;59.08789;961.3714;;;;
2019/04/12 08:44:50;;;;;;;22.7;18.5;;;;;;;5.75;58.77637;961.3351;;;;
2019/04/12 08:47:16;;;;;;;23.2;19.2;;;;;;;5.88;58.98828;961.3416;;;;
2019/04/12 08:49:42;;;;;;;23.4;19.6;;;;;;;6.13;56.95605;961.312;;;;
2019/04/12 08:52:07;;;;;;;25.1;19.7;;;;;;;6.34;58.71973;961.2819;;;;
2019/04/12 08:54:32;;;;;;;25.7;19.6;;;;;;;6.43;56.01367;961.2739;;;;
2019/04/12 08:56:57;;;;;;;24.9;19.7;;;;;;;6.82;55.9834;961.2656;;;;
2019/04/12 08:59:22;;;;;;;24.7;19.6;;;;;;;6.84;55.39258;961.2339;;;;
2019/04/12 09:01:48;;;;;;;24.2;19.3;;;;;;;6.59;55.69043;961.3067;;;;
2019/04/12 09:04:13;;;;;;;22.9;19.1;;;;;;;6.56;56.77246;961.2031;;;;
2019/04/12 09:06:38;;;;;;;22.4;18.7;;;;;;;7.56;54.17773;961.2039;;;;
2019/04/12 09:11:28;;;;;;;24.2;19.4;;;;;;;7.48;54.20215;961.1895;;;;
2019/04/12 09:13:53;;;;;;;23.6;19.9;;;;;;;7.2;53.02148;961.2275;;;;
2019/04/12 09:16:19;;;;;;;22.6;19.7;;;;;;;6.75;54.65918;961.1744;;;;
2019/04/12 09:18:51;;;;;;;25.5;20.3;;;;;;;7.01;54.14258;961.1047;;;;
2019/04/12 09:23:45;;;;;;;24;20;;;;;;;7.38;54.10938;961.1346;;;;
2019/04/12 09:26:06;;;;;;;23.4;20.7;;;;;;;7.34;53.69141;961.1555;;;;
2019/04/12 09:28:29;;;;;;;25.4;20;;;;;;;7.15;54.0127;961.1553;;;;
2019/04/12 09:30:58;;;;;;;24.6;21.3;;;;;;;7.74;55.06152;961.1362;;;;
2019/04/12 09:33:20;;;;;;;26;20.6;;;;;;;7.57;53.21777;961.1812;;;;
2019/04/12 09:35:48;;;;;;;26.6;20.5;;;;;;;7.72;54.35938;961.1464;;;;
2019/04/12 09:38:12;;;;;;;26.4;21.3;;;;;;;7.65;54.5459;961.2417;;;;
2019/04/12 09:40:38;;;;;;;25.5;21.3;;;;;;;7.71;54.34668;961.1305;;;;
2019/04/12 09:43:03;;;;;;;26.2;20.8;;;;;;;7.71;54.49512;961.0842;;;;
2019/04/12 09:45:33;;;;;;;23.6;20.2;;;;;;;8.17;52.68262;961.1181;;;;
2019/04/12 09:48:00;;;;;;;25.3;21.2;;;;;;;8.59;51;961.1125;;;;
2019/04/12 09:50:28;;;;;;;28.5;20.9;;;;;;;8.91;51.47461;961.0904;;;;
2019/04/12 09:52:56;;;;;;;27.9;21.3;;;;;;;9.38;48.83887;961.0233;;;;
2019/04/12 09:55:21;;;;;;;25.9;19.9;;;;;;;9.27;47.73242;961.0299;;;;
2019/04/12 09:57:46;;;;;;;22.6;20.2;;;;;;;8.58;50.72266;960.9902;;;;
2019/04/12 10:00:12;;;;;;;24.5;20.6;;;;;;;8.62;50.91211;961.1094;;;;
2019/04/12 10:02:37;;;;;;;24.5;20.4;;;;;;;8.4;49.86328;961.0115;;;;
2019/04/12 10:05:02;;;;;;;23.9;20.5;;;;;;;9.52;48.62402;961.0524;;;;
2019/04/12 10:07:30;;;;;;;26.4;21.3;;;;;;;9.7;49.00195;960.9573;;;;
2019/04/12 10:09:55;;;;;;;25.1;21.1;;;;;;;9.77;48.29492;960.9847;;;;
2019/04/12 10:12:26;;;;;;;25.3;21.5;;;;;;;9.59;49.25293;960.9343;;;;
2019/04/12 10:14:50;;;;;;;25.3;22.2;;;;;;;9.68;48.76855;960.9515;;;;
2019/04/12 10:17:16;;;;;;;28.8;22.4;;;;;;;9.34;49.78906;960.938;;;;
2019/04/12 10:19:43;;;;;;;25.1;21.9;;;;;;;9.75;47.70508;960.9656;;;;
2019/04/12 10:22:08;;;;;;;25.5;21.4;;;;;;;9.33;48.25684;960.9177;;;;
2019/04/12 10:24:33;;;;;;;28.1;22.3;;;;;;;9.6;48.50586;960.8912;;;;
2019/04/12 10:26:58;;;;;;;26.9;22.3;;;;;;;9.49;47.69922;960.949;;;;
2019/04/12 10:29:24;;;;;;;25.4;22.3;;;;;;;9.45;48.62793;960.8849;;;;
2019/04/12 10:31:50;;;;;;;25;22.3;;;;;;;9.53;49.07324;960.856;;;;
2019/04/12 10:34:14;;;;;;;26.2;22.7;;;;;;;9.53;51.49121;960.7872;;;;
2019/04/12 10:36:39;;;;;;;27.3;21.6;;;;;;;9.47;48.26172;960.8269;;;;
2019/04/12 10:39:21;;;;;;;27.8;21.4;;;;;;;9.93;47.93359;960.8703;;;;
2019/04/12 10:41:34;;;;;;;25.9;22.1;;;;;;;10;46.69531;960.8592;;;;
2019/04/12 10:46:27;;;;;;;27.3;23.5;;;;;;;9.73;46.1709;960.7584;;;;
2019/04/12 10:53:49;;;;;;;28.5;21.7;;;;;;;9.93;46.44727;960.6658;;;;
2019/04/12 10:56:09;;;;;;;26.1;21.7;;;;;;;10.5;46.16113;960.6763;;;;
2019/04/12 10:58:35;;;;;;;26;22.5;;;;;;;10.66;47.0791;960.7371;;;;
2019/04/12 11:01:00;;;;;;;28.2;21.6;;;;;;;11.01;44.79395;960.6707;;;;
2019/04/12 11:03:25;;;;;;;24.3;21;;;;;;;10.98;45.49609;960.6265;;;;
2019/04/12 11:05:50;;;;;;;24;20.9;;;;;;;10.06;44.71973;960.5887;;;;
2019/04/12 11:08:16;;;;;;;25.7;21.9;;;;;;;10.19;45.29785;960.6738;;;;
2019/04/12 11:10:41;;;;;;;25.2;22;;;;;;;10.17;46.65527;960.6721;;;;
2019/04/12 11:13:08;;;;;;;25.5;21.8;;;;;;;10.57;44.94531;960.6561;;;;
2019/04/12 11:15:36;;;;;;;25.1;22.1;;;;;;;9.66;47.45313;960.668;;;;
2019/04/12 11:18:01;;;;;;;25.8;22.7;;;;;;;9.15;48.14453;960.6541;;;;
2019/04/12 11:20:27;;;;;;;25.6;21.4;;;;;;;9.81;46.20313;960.5336;;;;
2019/04/12 11:22:52;;;;;;;28.5;21.7;;;;;;;9.53;47.74902;960.6083;;;;
2019/04/12 11:25:24;;;;;;;26.4;22.1;;;;;;;9.32;48.84277;960.5825;;;;
2019/04/12 11:27:53;;;;;;;26.2;22.4;;;;;;;9.46;48.50195;960.6534;;;;
2019/04/12 11:30:17;;;;;;;26.9;22.1;;;;;;;9.55;48.85742;960.6234;;;;
2019/04/12 11:32:47;;;;;;;24;21.4;;;;;;;9.93;49.23535;960.6275;;;;
2019/04/12 11:35:13;;;;;;;27.4;23.2;;;;;;;10.91;45.78906;960.5266;;;;
2019/04/12 11:37:38;;;;;;;24.8;21.7;;;;;;;11.36;44.88867;960.6372;;;;
2019/04/12 11:40:06;;;;;;;25.5;22.5;;;;;;;11.12;45.52246;960.6714;;;;
2019/04/12 11:42:31;;;;;;;24.7;21.4;;;;;;;10.77;46.52441;960.6956;;;;
2019/04/12 11:44:56;;;;;;;25.6;22.5;;;;;;;10.03;46.39844;960.6174;;;;
2019/04/12 11:47:24;;;;;;;26.6;22.5;;;;;;;10.31;47.45605;960.6317;;;;
2019/04/12 11:49:48;;;;;;;25.7;22.8;;;;;;;9.66;47.46484;960.6042;;;;
2019/04/12 11:52:15;;;;;;;27.7;23.5;;;;;;;10.07;48.89355;960.6096;;;;
2019/04/12 11:54:39;;;;;;;28.9;23;;;;;;;10.04;48.55566;960.6677;;;;
2019/04/12 11:57:04;;;;;;;27.4;22.5;;;;;;;9.87;47.5459;960.6934;;;;
2019/04/12 11:59:29;;;;;;;27.7;23.2;;;;;;;9.67;47.43066;960.7056;;;;
2019/04/12 12:04:25;;;;;;;25.3;22.6;;;;;;;9.54;47.2207;960.7185;;;;
2019/04/12 12:09:24;;;;;;;27.8;23.3;;;;;;;9.31;49.26758;960.7708;;;;
2019/04/12 12:11:39;;;;;;;26.7;23.8;;;;;;;9.51;49.32422;960.7637;;;;
2019/04/12 12:18:59;;;;;;;29.5;23.4;;;;;;;10;47.42188;960.753;;;;
2019/04/12 12:21:19;;;;;;;27.5;23;;;;;;;9.7;46.99805;960.7745;;;;
2019/04/12 12:23:44;;;;;;;25.5;22.7;;;;;;;9.67;48.05273;960.803;;;;
2019/04/12 12:26:09;;;;;;;26.7;22.4;;;;;;;9.69;47.90527;960.7886;;;;
2019/04/12 12:28:35;;;;;;;27.6;23.5;;;;;;;9.69;47.27246;960.767;;;;
2019/04/12 12:31:00;;;;;;;30;23.4;;;;;;;9.52;47.86426;960.7584;;;;
2019/04/12 12:33:25;;;;;;;27.4;22.9;;;;;;;9.68;50.20898;960.8102;;;;
2019/04/12 12:35:50;;;;;;;28.7;24.1;;;;;;;10.39;45.12305;960.7559;;;;
2019/04/12 12:38:15;;;;;;;28.8;23.4;;;;;;;9.88;47.32813;960.752;;;;
2019/04/12 12:40:43;;;;;;;27.9;23.8;;;;;;;10.33;47.30762;960.7967;;;;
2019/04/12 12:43:05;;;;;;;28.7;23.9;;;;;;;9.86;47.35938;960.7158;;;;
2019/04/12 12:45:34;;;;;;;27.2;23.8;;;;;;;10.44;45.37109;960.7592;;;;
2019/04/12 12:47:59;;;;;;;27.4;23.6;;;;;;;10.13;46.15625;960.735;;;;
2019/04/12 12:50:24;;;;;;;27.2;23.2;;;;;;;10.5;44.82324;960.7411;;;;
2019/04/12 12:52:50;;;;;;;27.2;23.5;;;;;;;10.4;45.21582;960.7255;;;;
2019/04/12 12:55:14;;;;;;;28;23.4;;;;;;;10.69;47.08203;960.7634;;;;
2019/04/12 12:57:41;;;;;;;25.9;23.1;;;;;;;10.51;45.01953;960.7098;;;;
2019/04/12 13:00:05;;;;;;;27;22.7;;;;;;;10.67;45.2793;960.7228;;;;
2019/04/12 13:02:31;;;;;;;26.5;23.6;;;;;;;10.61;45.88477;960.6986;;;;
2019/04/12 13:04:58;;;;;;;25.9;23.1;;;;;;;10.9;45.38379;960.7411;;;;
2019/04/12 13:07:23;;;;;;;32.1;24.1;;;;;;;10.92;44.55469;960.709;;;;
2019/04/12 13:09:49;;;;;;;26.8;23.3;;;;;;;10.2;44.88379;960.7202;;;;
2019/04/12 13:12:13;;;;;;;26.9;23;;;;;;;10.59;44.24316;960.7227;;;;
2019/04/12 13:14:38;;;;;;;27.3;23.1;;;;;;;10.51;43.80762;960.7058;;;;
2019/04/12 13:17:07;;;;;;;27.1;23.8;;;;;;;10.6;42.95313;960.7683;;;;
2019/04/12 13:19:33;;;;;;;28.3;24.1;;;;;;;9.91;45.70605;960.724;;;;
2019/04/12 13:21:57;;;;;;;28.2;23.9;;;;;;;10.08;45.30957;960.7445;;;;
2019/04/12 13:24:23;;;;;;;29.4;24.2;;;;;;;10.08;46.3125;960.7828;;;;
2019/04/12 13:26:48;;;;;;;29.1;23.4;;;;;;;9.93;46.31836;960.7433;;;;
2019/04/12 13:29:13;;;;;;;27;23.2;;;;;;;9.94;44.87988;960.7466;;;;
2019/04/12 13:31:57;;;;;;;27.8;23.2;;;;;;;9.93;45.3623;960.8152;;;;
2019/04/12 13:34:11;;;;;;;27.7;24.2;;;;;;;9.61;45.30566;960.707;;;;
2019/04/12 13:39:07;;;;;;;30.1;24.3;;;;;;;9.26;46.4209;960.6947;;;;
2019/04/12 13:41:36;;;;;;;29.3;23.9;;;;;;;9.48;46.3623;960.6777;;;;
2019/04/12 13:43:52;;;;;;;28.2;24.5;;;;;;;9.35;46.5791;960.7416;;;;
2019/04/12 13:46:17;;;;;;;28.5;24.2;;;;;;;9.47;46.70801;960.738;;;;
2019/04/12 13:48:42;;;;;;;27.8;24.8;;;;;;;9.18;47.99902;960.7533;;;;
2019/04/12 13:51:07;;;;;;;30.4;25.1;;;;;;;9.35;47.51074;960.7328;;;;
2019/04/12 13:53:32;;;;;;;33.6;25.8;;;;;;;9.37;46.375;960.7519;;;;
2019/04/12 13:55:58;;;;;;;31;25.1;;;;;;;9.36;48.24902;960.7272;;;;
2019/04/12 13:58:22;;;;;;;29.1;24.2;;;;;;;9.18;47.94141;960.6775;;;;
2019/04/12 14:00:47;;;;;;;27.8;24.4;;;;;;;9.17;47.83789;960.699;;;;
2019/04/12 14:03:12;;;;;;;28.2;24.9;;;;;;;9.12;46.91113;960.67;;;;
2019/04/12 14:05:37;;;;;;;28.6;24.6;;;;;;;9.17;46.7793;960.6351;;;;
2019/04/12 14:08:02;;;;;;;30.1;24.6;;;;;;;9.12;46.70313;960.6322;;;;
2019/04/12 14:10:27;;;;;;;30.8;25.3;;;;;;;8.99;47.45996;960.6492;;;;
2019/04/12 14:12:52;;;;;;;31.2;25.2;;;;;;;9.37;47.4668;960.6163;;;;
2019/04/12 14:15:18;;;;;;;29.2;24.9;;;;;;;9.51;46.48145;960.5889;;;;
2019/04/12 14:17:43;;;;;;;31;25.1;;;;;;;9.55;47.46387;960.6707;;;;
2019/04/12 14:20:10;;;;;;;29.7;25.4;;;;;;;9.06;47.43262;960.5697;;;;
2019/04/12 14:22:33;;;;;;;26.8;23.9;;;;;;;9.18;48.43555;960.6431;;;;
2019/04/12 14:25:01;;;;;;;28.6;24.2;;;;;;;9.16;47.96191;960.6325;;;;
2019/04/12 14:27:24;;;;;;;29.2;25.1;;;;;;;8.66;47.73438;960.6122;;;;
2019/04/12 14:29:49;;;;;;;30.2;25.3;;;;;;;8.88;48.50488;960.5916;;;;
2019/04/12 14:32:20;;;;;;;29.9;25.3;;;;;;;9.05;46.89258;960.6383;;;;
2019/04/12 14:34:45;;;;;;;28.4;23.5;;;;;;;8.89;46.81641;960.6163;;;;
2019/04/12 14:37:12;;;;;;;30.4;25.2;;;;;;;8.7;47.7959;960.6508;;;;
2019/04/12 14:39:32;;;;;;;29.3;24.6;;;;;;;8.87;48.32129;960.6267;;;;
2019/04/12 14:41:57;;;;;;;29.2;24.5;;;;;;;9.13;46.94727;960.733;;;;
2019/04/12 14:44:29;;;;;;;28.4;24;;;;;;;8.95;46.73242;960.7079;;;;
2019/04/12 14:46:54;;;;;;;30.9;25.3;;;;;;;8.82;46.0625;960.6949;;;;
2019/04/12 14:49:14;;;;;;;31.9;25.1;;;;;;;8.79;47.73633;960.6387;;;;
2019/04/12 14:51:39;;;;;;;28.9;24.9;;;;;;;8.85;47.58203;960.6838;;;;
2019/04/12 14:54:05;;;;;;;30.5;25.2;;;;;;;8.87;46.66602;960.6306;;;;